KMTC/MTC METAR and TAF weather

Enter ICAO airport designator
Station Type Date Time Source
KMTC METAR 2020/01/18 15:48 UTC NOAA

KMTC 181548Z 15017KT 5SM -SN BR OVC007 01/01 A2980 RMK AO2A SLP103


Station Type Date Time Source
KMTC Decoded METAR 2020/01/18 15:48 UTC NOAA

Selfridge Air National Guard Base, MI, United States (KMTC) 42-37N 082-50W
Jan 18, 2020 - 10:48 AM EST / 2020.01.18 1548 UTC
Wind: from the SSE (150 degrees) at 20 MPH (17 KT):0
Visibility: 5 mile(s):0
Sky conditions: overcast
Weather: light snow; mist
Temperature: 33 F (1 C)
Windchill: 21 F (-6 C):1
Dew Point: 33 F (1 C)
Relative Humidity: 100%
Pressure (altimeter): 29.8 in. Hg (1009 hPa)
ob: KMTC 181548Z 15017KT 5SM -SN BR OVC007 01/01 A2980 RMK AO2A SLP103
cycle: 16

Station Type Date Time Source
KMTC TAF 2020/01/18 14:09 UTC NOAA

TAF
AMD KMTC 181405Z 1814/1915 12012G18KT 1600 -SN OVC006 620079 510054 QNH2967INS
TEMPO 1814/1817 -FZRA 690001
BECMG 1817/1818 16015G25KT 8000 -RA OVC003 620079 530055 QNH2955INS
BECMG 1823/1824 25025G35KT 9999 NSW BKN015 620156 530005 QNH2959INS TX02/1821Z TNM01/1814Z

Example: see airport list